Capitan Av. Vidal Villagomez Toledo Airport


Codes: SLVG/VAH
Name: Capitan Av. Vidal Villagomez Toledo Airport
City: Vallegrande
Country: Bolivia
Elevation: 6551 ft.

Photos at Capitan Av. Vidal Villagomez Toledo Airport


   Photos courtesy of SpottingLog. You can add your own sightings and photos by signing up for a free trial today.



No photos found.

Weather at Capitan Av. Vidal Villagomez Toledo Airport


Time (UTC)DescriptionTempratureWindCloud coverageVisibilityPressureHumidity
19-Apr-2024 06:00Overcast Clouds12°C2 mph, N94%10000m1019hPa93%
19-Apr-2024 09:00Scattered Clouds11°C2 mph, N35%10000m1018hPa95%
19-Apr-2024 12:00Clear Sky15°C4 mph, NW1%10000m1017hPa85%
19-Apr-2024 15:00Clear Sky22°C7 mph, N0%10000m1015hPa56%
19-Apr-2024 18:00Few Clouds24°C9 mph, NE20%10000m1010hPa50%
19-Apr-2024 21:00Scattered Clouds20°C9 mph, N47%10000m1011hPa67%
20-Apr-2024 00:00Scattered Clouds14°C4 mph, NE36%10000m1015hPa95%
20-Apr-2024 03:00Few Clouds13°C4 mph, N19%7285m1016hPa98%
20-Apr-2024 06:00Scattered Clouds13°C4 mph, N38%5776m1015hPa98%
20-Apr-2024 09:00Broken Clouds12°C4 mph, N68%8259m1015hPa97%
20-Apr-2024 12:00Broken Clouds14°C4 mph, N62%10000m1016hPa90%
20-Apr-2024 15:00Clear Sky22°C9 mph, N8%10000m1014hPa57%
20-Apr-2024 18:00Clear Sky24°C11 mph, N7%10000m1010hPa49%
20-Apr-2024 21:00Few Clouds20°C9 mph, N16%10000m1010hPa68%
21-Apr-2024 00:00Few Clouds14°C4 mph, N11%10000m1014hPa97%
21-Apr-2024 03:00Scattered Clouds14°C4 mph, N38%3916m1015hPa98%
21-Apr-2024 06:00Broken Clouds14°C4 mph, N51%5061m1014hPa98%
21-Apr-2024 09:00Overcast Clouds14°C4 mph, N97%2824m1013hPa98%
21-Apr-2024 12:00Overcast Clouds15°C4 mph, N94%6704m1014hPa93%
21-Apr-2024 15:00Broken Clouds22°C9 mph, N66%10000m1012hPa65%
21-Apr-2024 18:00Scattered Clouds25°C11 mph, N50%10000m1007hPa50%
21-Apr-2024 21:00Scattered Clouds21°C9 mph, N25%10000m1007hPa71%
22-Apr-2024 00:00Few Clouds15°C4 mph, N23%8549m1011hPa97%
22-Apr-2024 03:00Overcast Clouds16°C4 mph, N100%5597m1012hPa97%
22-Apr-2024 06:00Overcast Clouds16°C4 mph, N100%0m1011hPa97%
22-Apr-2024 09:00Overcast Clouds15°C4 mph, NW96%2349m1010hPa97%
22-Apr-2024 12:00Overcast Clouds17°C4 mph, NW88%4919m1012hPa93%
22-Apr-2024 15:00Overcast Clouds22°C7 mph, N85%10000m1010hPa67%
22-Apr-2024 18:00Broken Clouds25°C7 mph, N81%10000m1007hPa55%
22-Apr-2024 21:00Scattered Clouds22°C7 mph, NE43%10000m1007hPa69%
23-Apr-2024 00:00Scattered Clouds16°C4 mph, NE41%8610m1011hPa96%
23-Apr-2024 03:00Broken Clouds16°C4 mph, N74%7304m1013hPa98%
23-Apr-2024 06:00Overcast Clouds16°C2 mph, NE85%8298m1013hPa96%
23-Apr-2024 09:00Light Rain16°C2 mph, NE100%10000m1013hPa95%
23-Apr-2024 12:00Light Rain18°C2 mph, N100%10000m1014hPa91%
23-Apr-2024 15:00Light Rain22°C4 mph, N70%10000m1013hPa67%
23-Apr-2024 18:00Light Rain25°C7 mph, NE62%10000m1009hPa53%
23-Apr-2024 21:00Light Rain21°C4 mph, NE90%10000m1009hPa77%
24-Apr-2024 00:00Light Rain17°C4 mph, NE62%10000m1013hPa97%
24-Apr-2024 03:00Light Rain16°C4 mph, NE77%9126m1015hPa98%